sensor_id;sensor_type;location;lat;lon;timestamp;temperature;humidity
23719;DHT22;43322;52.230;5.702;2023-03-14T00:02:25;10.60;99.90
23719;DHT22;43322;52.230;5.702;2023-03-14T00:04:54;10.40;99.90
23719;DHT22;43322;52.230;5.702;2023-03-14T00:07:21;10.30;99.90
23719;DHT22;43322;52.230;5.702;2023-03-14T00:09:49;10.40;99.90
23719;DHT22;43322;52.230;5.702;2023-03-14T00:12:18;10.40;99.90
23719;DHT22;43322;52.230;5.702;2023-03-14T00:14:44;10.30;99.90
23719;DHT22;43322;52.230;5.702;2023-03-14T00:17:11;10.20;99.90
23719;DHT22;43322;52.230;5.702;2023-03-14T00:19:39;10.20;99.90
23719;DHT22;43322;52.230;5.702;2023-03-14T00:22:06;10.20;99.90
23719;DHT22;43322;52.230;5.702;2023-03-14T00:24:33;10.10;99.90
23719;DHT22;43322;52.230;5.702;2023-03-14T00:27:00;10.20;99.90
23719;DHT22;43322;52.230;5.702;2023-03-14T00:29:28;10.10;99.90
23719;DHT22;43322;52.230;5.702;2023-03-14T00:31:55;10.10;99.90
23719;DHT22;43322;52.230;5.702;2023-03-14T00:34:21;10.20;99.90
23719;DHT22;43322;52.230;5.702;2023-03-14T00:36:49;10.20;99.90
23719;DHT22;43322;52.230;5.702;2023-03-14T00:39:16;10.20;99.90
23719;DHT22;43322;52.230;5.702;2023-03-14T00:41:43;10.30;99.90
23719;DHT22;43322;52.230;5.702;2023-03-14T00:44:09;10.20;99.90
23719;DHT22;43322;52.230;5.702;2023-03-14T00:46:38;10.20;99.90
23719;DHT22;43322;52.230;5.702;2023-03-14T00:49:05;10.20;99.90
23719;DHT22;43322;52.230;5.702;2023-03-14T00:51:32;10.20;99.90
23719;DHT22;43322;52.230;5.702;2023-03-14T00:53:59;10.30;99.90
23719;DHT22;43322;52.230;5.702;2023-03-14T00:56:26;10.40;99.90
23719;DHT22;43322;52.230;5.702;2023-03-14T00:58:53;10.30;99.90
23719;DHT22;43322;52.230;5.702;2023-03-14T01:01:21;10.20;99.90
23719;DHT22;43322;52.230;5.702;2023-03-14T01:03:51;10.20;99.90
23719;DHT22;43322;52.230;5.702;2023-03-14T01:06:20;10.30;99.90
23719;DHT22;43322;52.230;5.702;2023-03-14T01:08:48;10.30;99.90
23719;DHT22;43322;52.230;5.702;2023-03-14T01:11:17;10.20;99.90
23719;DHT22;43322;52.230;5.702;2023-03-14T01:13:45;10.80;99.90
23719;DHT22;43322;52.230;5.702;2023-03-14T01:16:12;10.10;99.90
23719;DHT22;43322;52.230;5.702;2023-03-14T01:18:41;10.10;99.90
23719;DHT22;43322;52.230;5.702;2023-03-14T01:21:12;10.50;99.90
23719;DHT22;43322;52.230;5.702;2023-03-14T01:23:39;10.20;99.90
23719;DHT22;43322;52.230;5.702;2023-03-14T01:26:09;10.10;99.90
23719;DHT22;43322;52.230;5.702;2023-03-14T01:28:36;10.10;99.90
23719;DHT22;43322;52.230;5.702;2023-03-14T01:31:04;10.20;99.90
23719;DHT22;43322;52.230;5.702;2023-03-14T01:33:31;10.10;99.90
23719;DHT22;43322;52.230;5.702;2023-03-14T01:35:58;10.10;99.90
23719;DHT22;43322;52.230;5.702;2023-03-14T01:38:28;9.90;99.90
23719;DHT22;43322;52.230;5.702;2023-03-14T01:40:56;9.90;99.90
23719;DHT22;43322;52.230;5.702;2023-03-14T01:43:23;9.80;99.90
23719;DHT22;43322;52.230;5.702;2023-03-14T01:46:32;9.80;99.90
23719;DHT22;43322;52.230;5.702;2023-03-14T01:49:05;9.70;99.90
23719;DHT22;43322;52.230;5.702;2023-03-14T01:51:36;9.60;99.90
23719;DHT22;43322;52.230;5.702;2023-03-14T01:54:12;9.60;99.90
23719;DHT22;43322;52.230;5.702;2023-03-14T01:56:42;9.50;99.90
23719;DHT22;43322;52.230;5.702;2023-03-14T01:59:10;9.50;99.90
23719;DHT22;43322;52.230;5.702;2023-03-14T02:01:40;9.50;99.90
23719;DHT22;43322;52.230;5.702;2023-03-14T02:04:08;9.40;99.90
23719;DHT22;43322;52.230;5.702;2023-03-14T02:06:42;9.30;99.90
23719;DHT22;43322;52.230;5.702;2023-03-14T02:09:12;9.30;99.90
23719;DHT22;43322;52.230;5.702;2023-03-14T02:11:39;9.30;99.90
23719;DHT22;43322;52.230;5.702;2023-03-14T02:14:07;9.50;99.90
23719;DHT22;43322;52.230;5.702;2023-03-14T02:16:36;9.30;99.90
23719;DHT22;43322;52.230;5.702;2023-03-14T02:19:04;9.20;99.90
23719;DHT22;43322;52.230;5.702;2023-03-14T02:21:41;9.30;99.90
23719;DHT22;43322;52.230;5.702;2023-03-14T02:24:17;9.30;99.90
23719;DHT22;43322;52.230;5.702;2023-03-14T02:29:49;9.30;99.90
23719;DHT22;43322;52.230;5.702;2023-03-14T02:32:17;9.30;99.90
23719;DHT22;43322;52.230;5.702;2023-03-14T02:34:49;9.30;99.90
23719;DHT22;43322;52.230;5.702;2023-03-14T02:37:19;9.30;99.90
23719;DHT22;43322;52.230;5.702;2023-03-14T02:39:47;9.20;99.90
23719;DHT22;43322;52.230;5.702;2023-03-14T02:42:15;9.30;99.90
23719;DHT22;43322;52.230;5.702;2023-03-14T02:44:52;9.30;99.90
23719;DHT22;43322;52.230;5.702;2023-03-14T02:47:24;9.40;99.90
23719;DHT22;43322;52.230;5.702;2023-03-14T02:49:54;9.40;99.90
23719;DHT22;43322;52.230;5.702;2023-03-14T02:52:24;9.30;99.90
23719;DHT22;43322;52.230;5.702;2023-03-14T02:54:50;9.40;99.90
23719;DHT22;43322;52.230;5.702;2023-03-14T02:57:17;9.30;99.90
23719;DHT22;43322;52.230;5.702;2023-03-14T02:59:44;9.30;99.90
23719;DHT22;43322;52.230;5.702;2023-03-14T03:02:12;9.30;99.90
23719;DHT22;43322;52.230;5.702;2023-03-14T03:04:39;9.30;99.90
23719;DHT22;43322;52.230;5.702;2023-03-14T03:07:06;9.30;99.90
23719;DHT22;43322;52.230;5.702;2023-03-14T03:09:33;9.30;99.90
23719;DHT22;43322;52.230;5.702;2023-03-14T03:12:00;9.20;99.90
23719;DHT22;43322;52.230;5.702;2023-03-14T03:14:27;9.20;99.90
23719;DHT22;43322;52.230;5.702;2023-03-14T03:16:54;9.30;99.90
23719;DHT22;43322;52.230;5.702;2023-03-14T03:19:23;9.20;99.90
23719;DHT22;43322;52.230;5.702;2023-03-14T03:21:50;9.20;99.90
23719;DHT22;43322;52.230;5.702;2023-03-14T03:24:16;9.20;99.90
23719;DHT22;43322;52.230;5.702;2023-03-14T03:26:43;9.20;99.90
23719;DHT22;43322;52.230;5.702;2023-03-14T03:29:10;9.30;99.90
23719;DHT22;43322;52.230;5.702;2023-03-14T03:31:37;9.20;99.90
23719;DHT22;43322;52.230;5.702;2023-03-14T03:34:04;9.10;99.90
23719;DHT22;43322;52.230;5.702;2023-03-14T03:36:33;9.20;99.90
23719;DHT22;43322;52.230;5.702;2023-03-14T03:38:59;9.20;99.90
23719;DHT22;43322;52.230;5.702;2023-03-14T03:41:26;9.30;99.90
23719;DHT22;43322;52.230;5.702;2023-03-14T03:43:53;9.30;99.90
23719;DHT22;43322;52.230;5.702;2023-03-14T03:46:20;9.30;99.90
23719;DHT22;43322;52.230;5.702;2023-03-14T03:48:47;9.30;99.90
23719;DHT22;43322;52.230;5.702;2023-03-14T03:51:14;9.30;99.90
23719;DHT22;43322;52.230;5.702;2023-03-14T03:53:42;9.20;99.90
23719;DHT22;43322;52.230;5.702;2023-03-14T03:56:09;9.20;99.90
23719;DHT22;43322;52.230;5.702;2023-03-14T03:58:37;9.20;99.90
23719;DHT22;43322;52.230;5.702;2023-03-14T04:01:05;9.20;99.90
23719;DHT22;43322;52.230;5.702;2023-03-14T04:03:32;9.20;99.90
23719;DHT22;43322;52.230;5.702;2023-03-14T04:06:00;9.20;99.90
23719;DHT22;43322;52.230;5.702;2023-03-14T04:08:27;9.20;99.90
23719;DHT22;43322;52.230;5.702;2023-03-14T04:10:57;9.20;99.90
23719;DHT22;43322;52.230;5.702;2023-03-14T04:13:25;9.20;99.90
23719;DHT22;43322;52.230;5.702;2023-03-14T04:15:53;9.20;99.90
23719;DHT22;43322;52.230;5.702;2023-03-14T04:18:20;9.10;99.90
23719;DHT22;43322;52.230;5.702;2023-03-14T04:20:51;9.20;99.90
23719;DHT22;43322;52.230;5.702;2023-03-14T04:23:18;9.20;99.90
23719;DHT22;43322;52.230;5.702;2023-03-14T04:25:45;9.20;99.90
23719;DHT22;43322;52.230;5.702;2023-03-14T04:28:13;9.20;99.90
23719;DHT22;43322;52.230;5.702;2023-03-14T04:30:39;9.20;99.90
23719;DHT22;43322;52.230;5.702;2023-03-14T04:33:09;9.20;99.90
23719;DHT22;43322;52.230;5.702;2023-03-14T04:35:38;9.30;99.90
23719;DHT22;43322;52.230;5.702;2023-03-14T04:38:05;9.30;99.90
23719;DHT22;43322;52.230;5.702;2023-03-14T04:40:31;9.30;99.90
23719;DHT22;43322;52.230;5.702;2023-03-14T04:42:58;9.30;99.90
23719;DHT22;43322;52.230;5.702;2023-03-14T04:45:26;10.40;99.90
23719;DHT22;43322;52.230;5.702;2023-03-14T04:47:53;9.30;99.90
23719;DHT22;43322;52.230;5.702;2023-03-14T04:50:20;9.30;99.90
23719;DHT22;43322;52.230;5.702;2023-03-14T04:52:47;9.30;99.90
23719;DHT22;43322;52.230;5.702;2023-03-14T04:55:14;9.30;99.90
23719;DHT22;43322;52.230;5.702;2023-03-14T04:57:41;9.40;99.90
23719;DHT22;43322;52.230;5.702;2023-03-14T05:00:10;9.40;99.90
23719;DHT22;43322;52.230;5.702;2023-03-14T05:02:38;9.30;99.90
23719;DHT22;43322;52.230;5.702;2023-03-14T05:05:06;9.30;99.90
23719;DHT22;43322;52.230;5.702;2023-03-14T05:07:33;9.40;99.90
23719;DHT22;43322;52.230;5.702;2023-03-14T05:10:00;9.50;99.90
23719;DHT22;43322;52.230;5.702;2023-03-14T05:12:26;9.40;99.90
23719;DHT22;43322;52.230;5.702;2023-03-14T05:14:53;9.50;99.90
23719;DHT22;43322;52.230;5.702;2023-03-14T05:17:20;9.50;99.90
23719;DHT22;43322;52.230;5.702;2023-03-14T05:19:49;9.40;99.90
23719;DHT22;43322;52.230;5.702;2023-03-14T05:22:16;9.40;99.90
23719;DHT22;43322;52.230;5.702;2023-03-14T05:24:43;9.40;99.90
23719;DHT22;43322;52.230;5.702;2023-03-14T05:27:10;9.30;99.90
23719;DHT22;43322;52.230;5.702;2023-03-14T05:29:36;9.30;99.90
23719;DHT22;43322;52.230;5.702;2023-03-14T05:32:04;9.30;99.90
23719;DHT22;43322;52.230;5.702;2023-03-14T05:34:31;9.20;99.90
23719;DHT22;43322;52.230;5.702;2023-03-14T05:36:59;9.10;99.90
23719;DHT22;43322;52.230;5.702;2023-03-14T05:39:26;9.10;99.90
23719;DHT22;43322;52.230;5.702;2023-03-14T05:41:53;9.10;99.90
23719;DHT22;43322;52.230;5.702;2023-03-14T05:44:21;9.10;99.90
23719;DHT22;43322;52.230;5.702;2023-03-14T05:46:48;9.10;99.90
23719;DHT22;43322;52.230;5.702;2023-03-14T05:49:15;9.00;99.90
23719;DHT22;43322;52.230;5.702;2023-03-14T05:51:42;9.00;99.90
23719;DHT22;43322;52.230;5.702;2023-03-14T05:54:10;9.00;99.90
23719;DHT22;43322;52.230;5.702;2023-03-14T05:56:37;9.50;99.90
23719;DHT22;43322;52.230;5.702;2023-03-14T05:59:04;9.00;99.90
23719;DHT22;43322;52.230;5.702;2023-03-14T06:01:32;9.00;99.90
23719;DHT22;43322;52.230;5.702;2023-03-14T06:03:59;9.00;99.90
23719;DHT22;43322;52.230;5.702;2023-03-14T06:06:26;9.00;99.90
23719;DHT22;43322;52.230;5.702;2023-03-14T06:08:54;8.90;99.90
23719;DHT22;43322;52.230;5.702;2023-03-14T06:11:22;9.00;99.90
23719;DHT22;43322;52.230;5.702;2023-03-14T06:13:50;8.90;99.90
23719;DHT22;43322;52.230;5.702;2023-03-14T06:16:17;8.90;99.90
23719;DHT22;43322;52.230;5.702;2023-03-14T06:18:44;8.80;99.90
23719;DHT22;43322;52.230;5.702;2023-03-14T06:21:12;8.90;99.90
23719;DHT22;43322;52.230;5.702;2023-03-14T06:23:39;8.90;99.90
23719;DHT22;43322;52.230;5.702;2023-03-14T06:26:05;8.90;99.90
23719;DHT22;43322;52.230;5.702;2023-03-14T06:28:34;8.90;99.90
23719;DHT22;43322;52.230;5.702;2023-03-14T06:31:01;9.00;99.90
23719;DHT22;43322;52.230;5.702;2023-03-14T06:33:28;8.90;99.90
23719;DHT22;43322;52.230;5.702;2023-03-14T06:35:55;9.00;99.90
23719;DHT22;43322;52.230;5.702;2023-03-14T06:38:22;9.00;99.90
23719;DHT22;43322;52.230;5.702;2023-03-14T06:40:49;9.00;99.90
23719;DHT22;43322;52.230;5.702;2023-03-14T06:43:16;9.00;99.90
23719;DHT22;43322;52.230;5.702;2023-03-14T06:45:45;9.00;99.90
23719;DHT22;43322;52.230;5.702;2023-03-14T06:48:12;9.00;99.90
23719;DHT22;43322;52.230;5.702;2023-03-14T06:50:39;8.90;99.90
23719;DHT22;43322;52.230;5.702;2023-03-14T06:53:06;8.90;99.90
23719;DHT22;43322;52.230;5.702;2023-03-14T06:55:33;9.00;99.90
23719;DHT22;43322;52.230;5.702;2023-03-14T06:57:59;8.90;99.90
23719;DHT22;43322;52.230;5.702;2023-03-14T07:00:26;8.90;99.90
23719;DHT22;43322;52.230;5.702;2023-03-14T07:02:55;8.60;99.90
23719;DHT22;43322;52.230;5.702;2023-03-14T07:05:22;8.30;99.90
23719;DHT22;43322;52.230;5.702;2023-03-14T07:07:49;8.20;99.90
23719;DHT22;43322;52.230;5.702;2023-03-14T07:10:16;8.10;99.90
23719;DHT22;43322;52.230;5.702;2023-03-14T07:12:43;8.10;99.90
23719;DHT22;43322;52.230;5.702;2023-03-14T07:15:10;8.10;99.90
23719;DHT22;43322;52.230;5.702;2023-03-14T07:17:37;8.00;99.90
23719;DHT22;43322;52.230;5.702;2023-03-14T07:20:08;8.00;99.90
23719;DHT22;43322;52.230;5.702;2023-03-14T07:22:35;7.90;99.90
23719;DHT22;43322;52.230;5.702;2023-03-14T07:25:02;7.90;99.90
23719;DHT22;43322;52.230;5.702;2023-03-14T07:27:29;7.80;99.90
23719;DHT22;43322;52.230;5.702;2023-03-14T07:29:56;8.40;99.90
23719;DHT22;43322;52.230;5.702;2023-03-14T07:32:23;7.90;99.90
23719;DHT22;43322;52.230;5.702;2023-03-14T07:34:51;7.80;99.90
23719;DHT22;43322;52.230;5.702;2023-03-14T07:37:19;7.70;99.90
23719;DHT22;43322;52.230;5.702;2023-03-14T07:39:46;7.70;99.90
23719;DHT22;43322;52.230;5.702;2023-03-14T07:42:13;7.60;99.90
23719;DHT22;43322;52.230;5.702;2023-03-14T07:44:40;7.70;99.90
23719;DHT22;43322;52.230;5.702;2023-03-14T07:47:07;7.60;99.90
23719;DHT22;43322;52.230;5.702;2023-03-14T07:49:33;7.50;99.90
23719;DHT22;43322;52.230;5.702;2023-03-14T07:52:00;7.40;99.90
23719;DHT22;43322;52.230;5.702;2023-03-14T07:54:29;7.40;99.90
23719;DHT22;43322;52.230;5.702;2023-03-14T07:56:56;7.40;99.90
23719;DHT22;43322;52.230;5.702;2023-03-14T07:59:26;7.50;99.90
23719;DHT22;43322;52.230;5.702;2023-03-14T08:01:52;7.50;99.90
23719;DHT22;43322;52.230;5.702;2023-03-14T08:04:19;7.20;99.90
23719;DHT22;43322;52.230;5.702;2023-03-14T08:06:46;6.90;99.90
23719;DHT22;43322;52.230;5.702;2023-03-14T08:09:13;6.70;99.90
23719;DHT22;43322;52.230;5.702;2023-03-14T08:11:41;6.70;99.90
23719;DHT22;43322;52.230;5.702;2023-03-14T08:14:08;6.60;99.90
23719;DHT22;43322;52.230;5.702;2023-03-14T08:16:36;6.60;99.90
23719;DHT22;43322;52.230;5.702;2023-03-14T08:19:03;6.70;99.90
23719;DHT22;43322;52.230;5.702;2023-03-14T08:21:30;6.70;99.90
23719;DHT22;43322;52.230;5.702;2023-03-14T08:23:57;6.70;99.90
23719;DHT22;43322;52.230;5.702;2023-03-14T08:26:24;6.50;99.90
23719;DHT22;43322;52.230;5.702;2023-03-14T08:28:52;6.50;99.90
23719;DHT22;43322;52.230;5.702;2023-03-14T08:31:19;6.40;99.90
23719;DHT22;43322;52.230;5.702;2023-03-14T08:33:46;6.50;99.90
23719;DHT22;43322;52.230;5.702;2023-03-14T08:36:13;6.50;99.90
23719;DHT22;43322;52.230;5.702;2023-03-14T08:38:40;6.50;99.90
23719;DHT22;43322;52.230;5.702;2023-03-14T08:41:09;6.50;99.90
23719;DHT22;43322;52.230;5.702;2023-03-14T08:43:36;6.60;99.90
23719;DHT22;43322;52.230;5.702;2023-03-14T08:46:05;6.60;99.90
23719;DHT22;43322;52.230;5.702;2023-03-14T08:48:32;6.70;99.90
23719;DHT22;43322;52.230;5.702;2023-03-14T08:51:04;6.70;99.90
23719;DHT22;43322;52.230;5.702;2023-03-14T08:53:31;6.80;99.90
23719;DHT22;43322;52.230;5.702;2023-03-14T08:55:58;6.80;99.90
23719;DHT22;43322;52.230;5.702;2023-03-14T08:58:25;7.00;99.90
23719;DHT22;43322;52.230;5.702;2023-03-14T09:00:52;7.10;99.90
23719;DHT22;43322;52.230;5.702;2023-03-14T09:03:20;7.10;99.90
23719;DHT22;43322;52.230;5.702;2023-03-14T09:05:48;7.00;99.90
23719;DHT22;43322;52.230;5.702;2023-03-14T09:08:15;7.20;99.90
23719;DHT22;43322;52.230;5.702;2023-03-14T09:10:42;7.10;99.90
23719;DHT22;43322;52.230;5.702;2023-03-14T09:13:09;7.10;99.90
23719;DHT22;43322;52.230;5.702;2023-03-14T09:15:36;7.10;99.90
23719;DHT22;43322;52.230;5.702;2023-03-14T09:18:03;7.10;99.90
23719;DHT22;43322;52.230;5.702;2023-03-14T09:20:32;7.00;99.90
23719;DHT22;43322;52.230;5.702;2023-03-14T09:22:58;6.90;99.90
23719;DHT22;43322;52.230;5.702;2023-03-14T09:25:25;6.90;99.90
23719;DHT22;43322;52.230;5.702;2023-03-14T09:27:52;7.00;99.90
23719;DHT22;43322;52.230;5.702;2023-03-14T09:30:19;7.00;99.90
23719;DHT22;43322;52.230;5.702;2023-03-14T09:32:46;7.00;99.90
23719;DHT22;43322;52.230;5.702;2023-03-14T09:35:12;7.10;99.90
23719;DHT22;43322;52.230;5.702;2023-03-14T09:37:46;7.40;99.90
23719;DHT22;43322;52.230;5.702;2023-03-14T09:40:16;7.60;99.90
23719;DHT22;43322;52.230;5.702;2023-03-14T09:42:43;7.70;99.90
23719;DHT22;43322;52.230;5.702;2023-03-14T09:45:13;7.60;99.90
23719;DHT22;43322;52.230;5.702;2023-03-14T09:47:43;7.60;99.90
23719;DHT22;43322;52.230;5.702;2023-03-14T09:50:13;7.80;99.90
23719;DHT22;43322;52.230;5.702;2023-03-14T09:52:43;7.80;99.90
23719;DHT22;43322;52.230;5.702;2023-03-14T09:55:14;7.60;99.90
23719;DHT22;43322;52.230;5.702;2023-03-14T09:57:42;7.60;99.90
23719;DHT22;43322;52.230;5.702;2023-03-14T10:00:16;7.50;99.90
23719;DHT22;43322;52.230;5.702;2023-03-14T10:02:47;7.60;99.90
23719;DHT22;43322;52.230;5.702;2023-03-14T10:05:18;7.50;99.90
23719;DHT22;43322;52.230;5.702;2023-03-14T10:07:45;7.40;99.90
23719;DHT22;43322;52.230;5.702;2023-03-14T10:10:18;7.40;99.90
23719;DHT22;43322;52.230;5.702;2023-03-14T10:12:48;7.40;99.90
23719;DHT22;43322;52.230;5.702;2023-03-14T10:15:24;7.60;99.90
23719;DHT22;43322;52.230;5.702;2023-03-14T10:17:51;7.90;99.90
23719;DHT22;43322;52.230;5.702;2023-03-14T10:20:33;7.60;99.90
23719;DHT22;43322;52.230;5.702;2023-03-14T10:23:02;7.50;99.90
23719;DHT22;43322;52.230;5.702;2023-03-14T10:25:33;7.50;99.90
23719;DHT22;43322;52.230;5.702;2023-03-14T10:28:00;7.10;99.90
23719;DHT22;43322;52.230;5.702;2023-03-14T10:30:29;6.80;99.90
23719;DHT22;43322;52.230;5.702;2023-03-14T10:32:57;6.70;99.90
23719;DHT22;43322;52.230;5.702;2023-03-14T10:35:24;6.30;99.90
23719;DHT22;43322;52.230;5.702;2023-03-14T10:37:55;6.70;99.90
23719;DHT22;43322;52.230;5.702;2023-03-14T10:40:27;7.10;99.90
23719;DHT22;43322;52.230;5.702;2023-03-14T10:42:57;7.50;99.90
23719;DHT22;43322;52.230;5.702;2023-03-14T10:45:31;7.60;99.90
23719;DHT22;43322;52.230;5.702;2023-03-14T10:47:59;7.60;99.90
23719;DHT22;43322;52.230;5.702;2023-03-14T10:50:32;7.60;99.90
23719;DHT22;43322;52.230;5.702;2023-03-14T10:53:02;8.30;99.90
23719;DHT22;43322;52.230;5.702;2023-03-14T10:55:40;7.10;99.90
23719;DHT22;43322;52.230;5.702;2023-03-14T10:58:20;7.30;99.90
23719;DHT22;43322;52.230;5.702;2023-03-14T11:00:51;7.20;99.90
23719;DHT22;43322;52.230;5.702;2023-03-14T11:03:20;7.20;99.90
23719;DHT22;43322;52.230;5.702;2023-03-14T11:05:53;7.30;99.90
23719;DHT22;43322;52.230;5.702;2023-03-14T11:08:25;7.40;99.90
23719;DHT22;43322;52.230;5.702;2023-03-14T11:10:57;7.40;99.90
23719;DHT22;43322;52.230;5.702;2023-03-14T11:13:33;7.40;99.90
23719;DHT22;43322;52.230;5.702;2023-03-14T11:16:08;7.40;99.90
23719;DHT22;43322;52.230;5.702;2023-03-14T11:18:57;7.70;99.90
23719;DHT22;43322;52.230;5.702;2023-03-14T11:21:29;7.40;99.90
23719;DHT22;43322;52.230;5.702;2023-03-14T11:24:09;8.00;99.90
23719;DHT22;43322;52.230;5.702;2023-03-14T11:26:43;9.10;99.90
23719;DHT22;43322;52.230;5.702;2023-03-14T11:29:21;9.20;99.90
23719;DHT22;43322;52.230;5.702;2023-03-14T11:31:54;10.20;99.90
23719;DHT22;43322;52.230;5.702;2023-03-14T11:34:27;11.10;99.90
23719;DHT22;43322;52.230;5.702;2023-03-14T11:37:00;11.40;99.90
23719;DHT22;43322;52.230;5.702;2023-03-14T11:39:35;12.00;99.90
23719;DHT22;43322;52.230;5.702;2023-03-14T11:42:04;12.40;99.90
23719;DHT22;43322;52.230;5.702;2023-03-14T11:44:35;11.80;99.90
23719;DHT22;43322;52.230;5.702;2023-03-14T11:47:07;11.90;99.90
23719;DHT22;43322;52.230;5.702;2023-03-14T11:49:38;12.50;99.90
23719;DHT22;43322;52.230;5.702;2023-03-14T11:52:11;13.10;99.90
23719;DHT22;43322;52.230;5.702;2023-03-14T11:54:42;13.10;99.90
23719;DHT22;43322;52.230;5.702;2023-03-14T11:57:14;13.50;99.90
23719;DHT22;43322;52.230;5.702;2023-03-14T11:59:50;13.10;99.90
23719;DHT22;43322;52.230;5.702;2023-03-14T12:02:22;13.50;99.90
23719;DHT22;43322;52.230;5.702;2023-03-14T12:05:01;13.50;99.90
23719;DHT22;43322;52.230;5.702;2023-03-14T12:07:34;13.70;99.90
23719;DHT22;43322;52.230;5.702;2023-03-14T12:10:06;13.50;99.90
23719;DHT22;43322;52.230;5.702;2023-03-14T12:12:33;13.40;99.90
23719;DHT22;43322;52.230;5.702;2023-03-14T12:15:03;13.20;99.90
23719;DHT22;43322;52.230;5.702;2023-03-14T12:17:36;12.60;99.90
23719;DHT22;43322;52.230;5.702;2023-03-14T12:20:06;12.70;99.90
23719;DHT22;43322;52.230;5.702;2023-03-14T12:22:43;13.30;99.90
23719;DHT22;43322;52.230;5.702;2023-03-14T12:25:16;13.20;99.90
23719;DHT22;43322;52.230;5.702;2023-03-14T12:30:31;14.20;99.90
23719;DHT22;43322;52.230;5.702;2023-03-14T12:33:31;14.00;99.90
23719;DHT22;43322;52.230;5.702;2023-03-14T12:36:04;12.90;99.90
23719;DHT22;43322;52.230;5.702;2023-03-14T12:38:45;12.90;99.90
23719;DHT22;43322;52.230;5.702;2023-03-14T12:41:17;13.30;99.90
23719;DHT22;43322;52.230;5.702;2023-03-14T12:43:47;13.50;99.90
23719;DHT22;43322;52.230;5.702;2023-03-14T12:46:23;13.70;99.90
23719;DHT22;43322;52.230;5.702;2023-03-14T12:48:50;14.30;99.90
23719;DHT22;43322;52.230;5.702;2023-03-14T12:51:26;14.30;99.90
23719;DHT22;43322;52.230;5.702;2023-03-14T12:54:13;14.70;99.90
23719;DHT22;43322;52.230;5.702;2023-03-14T12:56:58;13.40;99.90
23719;DHT22;43322;52.230;5.702;2023-03-14T12:59:31;13.00;99.90
23719;DHT22;43322;52.230;5.702;2023-03-14T13:02:14;11.60;99.90
23719;DHT22;43322;52.230;5.702;2023-03-14T13:04:47;10.80;99.90
23719;DHT22;43322;52.230;5.702;2023-03-14T13:07:33;10.30;99.90
23719;DHT22;43322;52.230;5.702;2023-03-14T13:10:16;10.20;99.90
23719;DHT22;43322;52.230;5.702;2023-03-14T13:12:48;10.90;99.90
23719;DHT22;43322;52.230;5.702;2023-03-14T13:15:23;12.20;99.90
23719;DHT22;43322;52.230;5.702;2023-03-14T13:17:55;12.90;99.90
23719;DHT22;43322;52.230;5.702;2023-03-14T13:20:28;12.40;99.90
23719;DHT22;43322;52.230;5.702;2023-03-14T13:22:55;11.90;99.90
23719;DHT22;43322;52.230;5.702;2023-03-14T13:25:23;11.90;99.90
23719;DHT22;43322;52.230;5.702;2023-03-14T13:27:52;13.10;99.90
23719;DHT22;43322;52.230;5.702;2023-03-14T13:30:22;12.00;99.90
23719;DHT22;43322;52.230;5.702;2023-03-14T13:32:52;11.80;99.90
23719;DHT22;43322;52.230;5.702;2023-03-14T13:35:22;10.90;99.90
23719;DHT22;43322;52.230;5.702;2023-03-14T13:37:55;11.20;99.90
23719;DHT22;43322;52.230;5.702;2023-03-14T13:40:26;10.90;99.90
23719;DHT22;43322;52.230;5.702;2023-03-14T13:43:15;10.90;99.90
23719;DHT22;43322;52.230;5.702;2023-03-14T13:45:54;11.00;99.90
23719;DHT22;43322;52.230;5.702;2023-03-14T13:48:26;11.40;99.90
23719;DHT22;43322;52.230;5.702;2023-03-14T13:50:56;11.30;99.90
23719;DHT22;43322;52.230;5.702;2023-03-14T13:53:25;10.60;99.90
23719;DHT22;43322;52.230;5.702;2023-03-14T13:55:53;9.80;99.90
23719;DHT22;43322;52.230;5.702;2023-03-14T13:58:27;10.00;99.90
23719;DHT22;43322;52.230;5.702;2023-03-14T14:01:05;10.10;99.90
23719;DHT22;43322;52.230;5.702;2023-03-14T14:03:39;10.00;99.90
23719;DHT22;43322;52.230;5.702;2023-03-14T14:06:16;10.00;99.90
23719;DHT22;43322;52.230;5.702;2023-03-14T14:08:46;10.80;99.90
23719;DHT22;43322;52.230;5.702;2023-03-14T14:11:20;10.40;99.90
23719;DHT22;43322;52.230;5.702;2023-03-14T14:13:48;10.20;99.90
23719;DHT22;43322;52.230;5.702;2023-03-14T14:16:19;9.80;99.90
23719;DHT22;43322;52.230;5.702;2023-03-14T14:18:49;9.50;99.90
23719;DHT22;43322;52.230;5.702;2023-03-14T14:21:17;9.00;99.90
23719;DHT22;43322;52.230;5.702;2023-03-14T14:23:44;8.60;99.90
23719;DHT22;43322;52.230;5.702;2023-03-14T14:26:16;9.00;99.90
23719;DHT22;43322;52.230;5.702;2023-03-14T14:28:43;9.50;99.90
23719;DHT22;43322;52.230;5.702;2023-03-14T14:31:20;9.50;99.90
23719;DHT22;43322;52.230;5.702;2023-03-14T14:33:56;9.50;99.90
23719;DHT22;43322;52.230;5.702;2023-03-14T14:36:24;9.10;99.90
23719;DHT22;43322;52.230;5.702;2023-03-14T14:38:53;9.00;99.90
23719;DHT22;43322;52.230;5.702;2023-03-14T14:41:21;9.50;99.90
23719;DHT22;43322;52.230;5.702;2023-03-14T14:43:48;10.10;99.90
23719;DHT22;43322;52.230;5.702;2023-03-14T14:46:18;9.30;99.90
23719;DHT22;43322;52.230;5.702;2023-03-14T14:48:47;8.90;99.90
23719;DHT22;43322;52.230;5.702;2023-03-14T14:51:26;8.40;99.90
23719;DHT22;43322;52.230;5.702;2023-03-14T14:54:13;8.40;99.90
23719;DHT22;43322;52.230;5.702;2023-03-14T14:56:46;8.40;99.90
23719;DHT22;43322;52.230;5.702;2023-03-14T14:59:22;8.30;99.90
23719;DHT22;43322;52.230;5.702;2023-03-14T15:01:49;8.00;99.90
23719;DHT22;43322;52.230;5.702;2023-03-14T15:04:17;7.60;99.90
23719;DHT22;43322;52.230;5.702;2023-03-14T15:06:46;7.40;99.90
23719;DHT22;43322;52.230;5.702;2023-03-14T15:09:15;7.50;99.90
23719;DHT22;43322;52.230;5.702;2023-03-14T15:11:43;7.50;99.90
23719;DHT22;43322;52.230;5.702;2023-03-14T15:14:10;7.70;99.90
23719;DHT22;43322;52.230;5.702;2023-03-14T15:16:38;7.80;99.90
23719;DHT22;43322;52.230;5.702;2023-03-14T15:19:11;7.90;99.90
23719;DHT22;43322;52.230;5.702;2023-03-14T15:21:38;8.20;99.90
23719;DHT22;43322;52.230;5.702;2023-03-14T15:24:09;7.90;99.90
23719;DHT22;43322;52.230;5.702;2023-03-14T15:26:37;7.90;99.90
23719;DHT22;43322;52.230;5.702;2023-03-14T15:29:04;7.80;99.90
23719;DHT22;43322;52.230;5.702;2023-03-14T15:31:33;7.70;99.90
23719;DHT22;43322;52.230;5.702;2023-03-14T15:34:00;7.70;99.90
23719;DHT22;43322;52.230;5.702;2023-03-14T15:36:29;7.70;99.90
23719;DHT22;43322;52.230;5.702;2023-03-14T15:38:57;7.70;99.90
23719;DHT22;43322;52.230;5.702;2023-03-14T15:41:26;7.60;99.90
23719;DHT22;43322;52.230;5.702;2023-03-14T15:43:53;7.50;99.90
23719;DHT22;43322;52.230;5.702;2023-03-14T15:46:20;7.50;99.90
23719;DHT22;43322;52.230;5.702;2023-03-14T15:48:48;7.60;99.90
23719;DHT22;43322;52.230;5.702;2023-03-14T15:51:15;7.90;99.90
23719;DHT22;43322;52.230;5.702;2023-03-14T15:53:41;7.70;99.90
23719;DHT22;43322;52.230;5.702;2023-03-14T15:56:12;7.50;99.90
23719;DHT22;43322;52.230;5.702;2023-03-14T15:58:41;7.40;99.90
23719;DHT22;43322;52.230;5.702;2023-03-14T16:01:12;7.60;99.90
23719;DHT22;43322;52.230;5.702;2023-03-14T16:03:39;7.60;99.90